sensor_id;sensor_type;location;lat;lon;timestamp;P1;durP1;ratioP1;P2;durP2;ratioP2
14098;SDS011;7126;48.458;7.930;2024-03-02T00:00:15;0.35;;;0.35;;
14098;SDS011;7126;48.458;7.930;2024-03-02T00:02:44;0.20;;;0.20;;
14098;SDS011;7126;48.458;7.930;2024-03-02T00:05:11;0.45;;;0.45;;
14098;SDS011;7126;48.458;7.930;2024-03-02T00:07:40;0.20;;;0.20;;
14098;SDS011;7126;48.458;7.930;2024-03-02T00:10:10;0.30;;;0.30;;
14098;SDS011;7126;48.458;7.930;2024-03-02T00:12:39;0.30;;;0.30;;
14098;SDS011;7126;48.458;7.930;2024-03-02T00:17:42;0.28;;;0.28;;
14098;SDS011;7126;48.458;7.930;2024-03-02T00:20:09;0.30;;;0.30;;
14098;SDS011;7126;48.458;7.930;2024-03-02T00:22:35;0.30;;;0.30;;
14098;SDS011;7126;48.458;7.930;2024-03-02T00:25:02;0.28;;;0.28;;
14098;SDS011;7126;48.458;7.930;2024-03-02T00:27:29;0.30;;;0.30;;
14098;SDS011;7126;48.458;7.930;2024-03-02T00:29:54;0.30;;;0.30;;
14098;SDS011;7126;48.458;7.930;2024-03-02T00:32:20;0.30;;;0.30;;
14098;SDS011;7126;48.458;7.930;2024-03-02T00:34:46;0.28;;;0.28;;
14098;SDS011;7126;48.458;7.930;2024-03-02T00:37:11;0.20;;;0.20;;
14098;SDS011;7126;48.458;7.930;2024-03-02T00:39:37;0.32;;;0.32;;
14098;SDS011;7126;48.458;7.930;2024-03-02T00:42:02;0.38;;;0.38;;
14098;SDS011;7126;48.458;7.930;2024-03-02T00:44:28;0.30;;;0.30;;
14098;SDS011;7126;48.458;7.930;2024-03-02T00:47:00;0.30;;;0.30;;
14098;SDS011;7126;48.458;7.930;2024-03-02T00:49:26;0.30;;;0.30;;
14098;SDS011;7126;48.458;7.930;2024-03-02T00:51:53;0.20;;;0.20;;
14098;SDS011;7126;48.458;7.930;2024-03-02T00:54:20;0.20;;;0.20;;
14098;SDS011;7126;48.458;7.930;2024-03-02T00:56:51;0.20;;;0.20;;
14098;SDS011;7126;48.458;7.930;2024-03-02T00:59:17;0.22;;;0.22;;
14098;SDS011;7126;48.458;7.930;2024-03-02T01:01:43;0.20;;;0.20;;
14098;SDS011;7126;48.458;7.930;2024-03-02T01:04:09;0.22;;;0.22;;
14098;SDS011;7126;48.458;7.930;2024-03-02T01:06:35;0.30;;;0.30;;
14098;SDS011;7126;48.458;7.930;2024-03-02T01:09:00;0.20;;;0.20;;
14098;SDS011;7126;48.458;7.930;2024-03-02T01:11:27;0.30;;;0.30;;
14098;SDS011;7126;48.458;7.930;2024-03-02T01:13:53;0.20;;;0.20;;
14098;SDS011;7126;48.458;7.930;2024-03-02T01:16:18;0.20;;;0.20;;
14098;SDS011;7126;48.458;7.930;2024-03-02T01:18:44;0.30;;;0.30;;
14098;SDS011;7126;48.458;7.930;2024-03-02T01:21:10;0.30;;;0.30;;
14098;SDS011;7126;48.458;7.930;2024-03-02T01:23:35;0.30;;;0.30;;
14098;SDS011;7126;48.458;7.930;2024-03-02T01:26:01;0.30;;;0.30;;
14098;SDS011;7126;48.458;7.930;2024-03-02T01:28:26;0.30;;;0.30;;
14098;SDS011;7126;48.458;7.930;2024-03-02T01:30:52;0.25;;;0.25;;
14098;SDS011;7126;48.458;7.930;2024-03-02T01:33:19;0.30;;;0.30;;
14098;SDS011;7126;48.458;7.930;2024-03-02T01:35:44;0.28;;;0.28;;
14098;SDS011;7126;48.458;7.930;2024-03-02T01:38:10;0.30;;;0.30;;
14098;SDS011;7126;48.458;7.930;2024-03-02T01:40:36;0.20;;;0.20;;
14098;SDS011;7126;48.458;7.930;2024-03-02T01:43:03;0.30;;;0.30;;
14098;SDS011;7126;48.458;7.930;2024-03-02T01:45:29;0.30;;;0.30;;
14098;SDS011;7126;48.458;7.930;2024-03-02T01:47:55;0.20;;;0.20;;
14098;SDS011;7126;48.458;7.930;2024-03-02T01:50:27;0.30;;;0.30;;
14098;SDS011;7126;48.458;7.930;2024-03-02T01:52:54;0.50;;;0.50;;
14098;SDS011;7126;48.458;7.930;2024-03-02T01:55:20;0.30;;;0.30;;
14098;SDS011;7126;48.458;7.930;2024-03-02T01:57:46;0.30;;;0.30;;
14098;SDS011;7126;48.458;7.930;2024-03-02T02:00:13;0.30;;;0.30;;
14098;SDS011;7126;48.458;7.930;2024-03-02T02:02:39;0.57;;;0.57;;
14098;SDS011;7126;48.458;7.930;2024-03-02T02:05:04;0.20;;;0.20;;
14098;SDS011;7126;48.458;7.930;2024-03-02T02:07:30;0.30;;;0.30;;
14098;SDS011;7126;48.458;7.930;2024-03-02T02:09:56;0.20;;;0.20;;
14098;SDS011;7126;48.458;7.930;2024-03-02T02:12:22;0.30;;;0.30;;
14098;SDS011;7126;48.458;7.930;2024-03-02T02:14:48;0.30;;;0.30;;
14098;SDS011;7126;48.458;7.930;2024-03-02T02:17:15;0.30;;;0.30;;
14098;SDS011;7126;48.458;7.930;2024-03-02T02:19:41;0.40;;;0.40;;
14098;SDS011;7126;48.458;7.930;2024-03-02T02:22:06;0.20;;;0.20;;
14098;SDS011;7126;48.458;7.930;2024-03-02T02:24:32;0.30;;;0.30;;
14098;SDS011;7126;48.458;7.930;2024-03-02T02:26:57;0.20;;;0.20;;
14098;SDS011;7126;48.458;7.930;2024-03-02T02:29:23;0.30;;;0.30;;
14098;SDS011;7126;48.458;7.930;2024-03-02T02:31:48;0.28;;;0.28;;
14098;SDS011;7126;48.458;7.930;2024-03-02T02:34:14;0.20;;;0.20;;
14098;SDS011;7126;48.458;7.930;2024-03-02T02:36:40;0.30;;;0.30;;
14098;SDS011;7126;48.458;7.930;2024-03-02T02:39:11;0.30;;;0.30;;
14098;SDS011;7126;48.458;7.930;2024-03-02T02:41:40;0.30;;;0.30;;
14098;SDS011;7126;48.458;7.930;2024-03-02T02:44:05;0.30;;;0.30;;
14098;SDS011;7126;48.458;7.930;2024-03-02T02:46:31;0.40;;;0.40;;
14098;SDS011;7126;48.458;7.930;2024-03-02T02:48:58;0.30;;;0.30;;
14098;SDS011;7126;48.458;7.930;2024-03-02T02:51:23;0.20;;;0.20;;
14098;SDS011;7126;48.458;7.930;2024-03-02T02:53:50;0.20;;;0.20;;
14098;SDS011;7126;48.458;7.930;2024-03-02T02:56:16;0.30;;;0.30;;
14098;SDS011;7126;48.458;7.930;2024-03-02T02:58:42;0.30;;;0.30;;
14098;SDS011;7126;48.458;7.930;2024-03-02T03:01:07;0.20;;;0.20;;
14098;SDS011;7126;48.458;7.930;2024-03-02T03:03:33;0.20;;;0.20;;
14098;SDS011;7126;48.458;7.930;2024-03-02T03:05:59;0.30;;;0.30;;
14098;SDS011;7126;48.458;7.930;2024-03-02T03:08:24;0.22;;;0.22;;
14098;SDS011;7126;48.458;7.930;2024-03-02T03:10:50;0.22;;;0.22;;
14098;SDS011;7126;48.458;7.930;2024-03-02T03:13:15;0.20;;;0.20;;
14098;SDS011;7126;48.458;7.930;2024-03-02T03:15:41;0.30;;;0.30;;
14098;SDS011;7126;48.458;7.930;2024-03-02T03:18:06;0.30;;;0.30;;
14098;SDS011;7126;48.458;7.930;2024-03-02T03:20:32;0.40;;;0.40;;
14098;SDS011;7126;48.458;7.930;2024-03-02T03:22:58;0.30;;;0.30;;
14098;SDS011;7126;48.458;7.930;2024-03-02T03:25:24;0.30;;;0.30;;
14098;SDS011;7126;48.458;7.930;2024-03-02T03:27:50;0.40;;;0.40;;
14098;SDS011;7126;48.458;7.930;2024-03-02T03:30:17;0.20;;;0.20;;
14098;SDS011;7126;48.458;7.930;2024-03-02T03:32:43;0.30;;;0.30;;
14098;SDS011;7126;48.458;7.930;2024-03-02T03:35:09;0.30;;;0.30;;
14098;SDS011;7126;48.458;7.930;2024-03-02T03:37:34;0.30;;;0.30;;
14098;SDS011;7126;48.458;7.930;2024-03-02T03:40:00;0.28;;;0.28;;
14098;SDS011;7126;48.458;7.930;2024-03-02T03:42:27;0.20;;;0.20;;
14098;SDS011;7126;48.458;7.930;2024-03-02T03:44:53;0.30;;;0.30;;
14098;SDS011;7126;48.458;7.930;2024-03-02T03:47:19;0.30;;;0.30;;
14098;SDS011;7126;48.458;7.930;2024-03-02T03:49:45;0.20;;;0.20;;
14098;SDS011;7126;48.458;7.930;2024-03-02T03:52:11;0.30;;;0.30;;
14098;SDS011;7126;48.458;7.930;2024-03-02T03:54:36;0.30;;;0.30;;
14098;SDS011;7126;48.458;7.930;2024-03-02T03:57:04;0.20;;;0.20;;
14098;SDS011;7126;48.458;7.930;2024-03-02T03:59:30;0.40;;;0.40;;
14098;SDS011;7126;48.458;7.930;2024-03-02T04:01:55;0.60;;;0.60;;
14098;SDS011;7126;48.458;7.930;2024-03-02T04:04:21;0.30;;;0.30;;
14098;SDS011;7126;48.458;7.930;2024-03-02T04:06:46;0.30;;;0.30;;
14098;SDS011;7126;48.458;7.930;2024-03-02T04:09:12;0.30;;;0.30;;
14098;SDS011;7126;48.458;7.930;2024-03-02T04:11:37;0.20;;;0.20;;
14098;SDS011;7126;48.458;7.930;2024-03-02T04:14:03;0.30;;;0.30;;
14098;SDS011;7126;48.458;7.930;2024-03-02T04:16:31;0.30;;;0.30;;
14098;SDS011;7126;48.458;7.930;2024-03-02T04:18:56;0.35;;;0.35;;
14098;SDS011;7126;48.458;7.930;2024-03-02T04:21:22;0.40;;;0.40;;
14098;SDS011;7126;48.458;7.930;2024-03-02T04:23:47;0.20;;;0.20;;
14098;SDS011;7126;48.458;7.930;2024-03-02T04:26:13;0.20;;;0.20;;
14098;SDS011;7126;48.458;7.930;2024-03-02T04:28:39;0.22;;;0.22;;
14098;SDS011;7126;48.458;7.930;2024-03-02T04:31:05;0.30;;;0.30;;
14098;SDS011;7126;48.458;7.930;2024-03-02T04:33:30;0.25;;;0.25;;
14098;SDS011;7126;48.458;7.930;2024-03-02T04:35:56;0.30;;;0.30;;
14098;SDS011;7126;48.458;7.930;2024-03-02T04:38:22;0.20;;;0.20;;
14098;SDS011;7126;48.458;7.930;2024-03-02T04:40:48;0.20;;;0.20;;
14098;SDS011;7126;48.458;7.930;2024-03-02T04:43:13;0.40;;;0.40;;
14098;SDS011;7126;48.458;7.930;2024-03-02T04:45:41;0.30;;;0.30;;
14098;SDS011;7126;48.458;7.930;2024-03-02T04:48:07;0.30;;;0.30;;
14098;SDS011;7126;48.458;7.930;2024-03-02T04:50:33;0.30;;;0.30;;
14098;SDS011;7126;48.458;7.930;2024-03-02T04:52:58;0.20;;;0.20;;
14098;SDS011;7126;48.458;7.930;2024-03-02T04:55:24;0.20;;;0.20;;
14098;SDS011;7126;48.458;7.930;2024-03-02T04:57:49;0.30;;;0.30;;
14098;SDS011;7126;48.458;7.930;2024-03-02T05:00:16;0.30;;;0.30;;
14098;SDS011;7126;48.458;7.930;2024-03-02T05:02:42;0.30;;;0.30;;
14098;SDS011;7126;48.458;7.930;2024-03-02T05:05:07;0.20;;;0.20;;
14098;SDS011;7126;48.458;7.930;2024-03-02T05:07:33;0.30;;;0.30;;
14098;SDS011;7126;48.458;7.930;2024-03-02T05:09:58;0.30;;;0.30;;
14098;SDS011;7126;48.458;7.930;2024-03-02T05:12:24;0.30;;;0.30;;
14098;SDS011;7126;48.458;7.930;2024-03-02T05:15:21;0.30;;;0.30;;
14098;SDS011;7126;48.458;7.930;2024-03-02T05:17:47;0.28;;;0.28;;
14098;SDS011;7126;48.458;7.930;2024-03-02T05:20:12;0.20;;;0.20;;
14098;SDS011;7126;48.458;7.930;2024-03-02T05:22:38;0.28;;;0.28;;
14098;SDS011;7126;48.458;7.930;2024-03-02T05:25:04;0.20;;;0.20;;
14098;SDS011;7126;48.458;7.930;2024-03-02T05:27:31;0.30;;;0.30;;
14098;SDS011;7126;48.458;7.930;2024-03-02T05:29:59;0.40;;;0.40;;
14098;SDS011;7126;48.458;7.930;2024-03-02T05:32:25;0.30;;;0.30;;
14098;SDS011;7126;48.458;7.930;2024-03-02T05:34:50;0.20;;;0.20;;
14098;SDS011;7126;48.458;7.930;2024-03-02T05:37:16;0.28;;;0.28;;
14098;SDS011;7126;48.458;7.930;2024-03-02T05:39:42;0.80;;;0.68;;
14098;SDS011;7126;48.458;7.930;2024-03-02T05:42:10;0.20;;;0.20;;
14098;SDS011;7126;48.458;7.930;2024-03-02T05:44:36;0.28;;;0.28;;
14098;SDS011;7126;48.458;7.930;2024-03-02T05:47:01;0.20;;;0.20;;
14098;SDS011;7126;48.458;7.930;2024-03-02T05:49:28;0.22;;;0.22;;
14098;SDS011;7126;48.458;7.930;2024-03-02T05:51:53;0.20;;;0.20;;
14098;SDS011;7126;48.458;7.930;2024-03-02T05:54:19;0.40;;;0.40;;
14098;SDS011;7126;48.458;7.930;2024-03-02T05:56:44;0.30;;;0.30;;
14098;SDS011;7126;48.458;7.930;2024-03-02T05:59:10;0.30;;;0.30;;
14098;SDS011;7126;48.458;7.930;2024-03-02T06:01:38;0.20;;;0.20;;
14098;SDS011;7126;48.458;7.930;2024-03-02T06:04:05;0.20;;;0.20;;
14098;SDS011;7126;48.458;7.930;2024-03-02T06:06:30;0.30;;;0.30;;
14098;SDS011;7126;48.458;7.930;2024-03-02T06:08:58;0.30;;;0.30;;
14098;SDS011;7126;48.458;7.930;2024-03-02T06:11:33;0.30;;;0.30;;
14098;SDS011;7126;48.458;7.930;2024-03-02T06:13:59;0.20;;;0.20;;
14098;SDS011;7126;48.458;7.930;2024-03-02T06:16:25;0.30;;;0.30;;
14098;SDS011;7126;48.458;7.930;2024-03-02T06:18:50;0.70;;;0.65;;
14098;SDS011;7126;48.458;7.930;2024-03-02T06:21:16;0.30;;;0.30;;
14098;SDS011;7126;48.458;7.930;2024-03-02T06:23:43;0.20;;;0.20;;
14098;SDS011;7126;48.458;7.930;2024-03-02T06:26:08;0.30;;;0.30;;
14098;SDS011;7126;48.458;7.930;2024-03-02T06:28:34;0.28;;;0.28;;
14098;SDS011;7126;48.458;7.930;2024-03-02T06:30:59;0.25;;;0.25;;
14098;SDS011;7126;48.458;7.930;2024-03-02T06:33:26;0.28;;;0.28;;
14098;SDS011;7126;48.458;7.930;2024-03-02T06:35:51;0.28;;;0.28;;
14098;SDS011;7126;48.458;7.930;2024-03-02T06:38:17;0.30;;;0.30;;
14098;SDS011;7126;48.458;7.930;2024-03-02T06:40:42;0.30;;;0.30;;
14098;SDS011;7126;48.458;7.930;2024-03-02T06:43:08;0.30;;;0.30;;
14098;SDS011;7126;48.458;7.930;2024-03-02T06:45:33;0.30;;;0.30;;
14098;SDS011;7126;48.458;7.930;2024-03-02T06:47:59;0.50;;;0.50;;
14098;SDS011;7126;48.458;7.930;2024-03-02T06:50:25;0.20;;;0.20;;
14098;SDS011;7126;48.458;7.930;2024-03-02T06:52:50;0.30;;;0.30;;
14098;SDS011;7126;48.458;7.930;2024-03-02T06:55:16;0.20;;;0.20;;
14098;SDS011;7126;48.458;7.930;2024-03-02T06:57:42;0.25;;;0.25;;
14098;SDS011;7126;48.458;7.930;2024-03-02T07:00:07;0.30;;;0.30;;
14098;SDS011;7126;48.458;7.930;2024-03-02T07:02:34;0.30;;;0.30;;
14098;SDS011;7126;48.458;7.930;2024-03-02T07:05:00;0.43;;;0.43;;
14098;SDS011;7126;48.458;7.930;2024-03-02T07:07:25;0.30;;;0.30;;
14098;SDS011;7126;48.458;7.930;2024-03-02T07:09:51;0.30;;;0.30;;
14098;SDS011;7126;48.458;7.930;2024-03-02T07:12:16;0.30;;;0.30;;
14098;SDS011;7126;48.458;7.930;2024-03-02T07:14:42;0.40;;;0.40;;
14098;SDS011;7126;48.458;7.930;2024-03-02T07:17:26;0.30;;;0.30;;
14098;SDS011;7126;48.458;7.930;2024-03-02T07:19:51;0.30;;;0.30;;
14098;SDS011;7126;48.458;7.930;2024-03-02T07:22:17;0.20;;;0.20;;
14098;SDS011;7126;48.458;7.930;2024-03-02T07:24:43;0.30;;;0.30;;
14098;SDS011;7126;48.458;7.930;2024-03-02T07:27:10;0.20;;;0.20;;
14098;SDS011;7126;48.458;7.930;2024-03-02T07:29:37;0.30;;;0.30;;
14098;SDS011;7126;48.458;7.930;2024-03-02T07:32:03;0.30;;;0.30;;
14098;SDS011;7126;48.458;7.930;2024-03-02T07:34:29;0.30;;;0.30;;
14098;SDS011;7126;48.458;7.930;2024-03-02T07:36:55;0.30;;;0.30;;
14098;SDS011;7126;48.458;7.930;2024-03-02T07:39:20;0.30;;;0.30;;
14098;SDS011;7126;48.458;7.930;2024-03-02T07:41:46;0.30;;;0.30;;
14098;SDS011;7126;48.458;7.930;2024-03-02T07:44:12;0.30;;;0.30;;
14098;SDS011;7126;48.458;7.930;2024-03-02T07:46:41;0.20;;;0.20;;
14098;SDS011;7126;48.458;7.930;2024-03-02T07:49:07;0.20;;;0.20;;
14098;SDS011;7126;48.458;7.930;2024-03-02T07:51:33;0.20;;;0.20;;
14098;SDS011;7126;48.458;7.930;2024-03-02T07:53:59;0.30;;;0.30;;
14098;SDS011;7126;48.458;7.930;2024-03-02T07:56:24;0.30;;;0.30;;
14098;SDS011;7126;48.458;7.930;2024-03-02T07:58:50;0.40;;;0.40;;
14098;SDS011;7126;48.458;7.930;2024-03-02T08:01:16;0.30;;;0.30;;
14098;SDS011;7126;48.458;7.930;2024-03-02T08:03:42;0.35;;;0.35;;
14098;SDS011;7126;48.458;7.930;2024-03-02T08:06:12;0.30;;;0.30;;
14098;SDS011;7126;48.458;7.930;2024-03-02T08:08:46;0.60;;;0.60;;
14098;SDS011;7126;48.458;7.930;2024-03-02T08:11:12;0.22;;;0.22;;
14098;SDS011;7126;48.458;7.930;2024-03-02T08:13:37;0.30;;;0.30;;
14098;SDS011;7126;48.458;7.930;2024-03-02T08:16:03;0.32;;;0.32;;
14098;SDS011;7126;48.458;7.930;2024-03-02T08:18:31;0.47;;;0.47;;
14098;SDS011;7126;48.458;7.930;2024-03-02T08:20:57;0.30;;;0.30;;
14098;SDS011;7126;48.458;7.930;2024-03-02T08:23:23;0.30;;;0.30;;
14098;SDS011;7126;48.458;7.930;2024-03-02T08:25:48;0.20;;;0.20;;
14098;SDS011;7126;48.458;7.930;2024-03-02T08:28:14;0.30;;;0.30;;
14098;SDS011;7126;48.458;7.930;2024-03-02T08:30:39;0.30;;;0.30;;
14098;SDS011;7126;48.458;7.930;2024-03-02T08:33:05;0.30;;;0.30;;
14098;SDS011;7126;48.458;7.930;2024-03-02T08:35:30;0.60;;;0.60;;
14098;SDS011;7126;48.458;7.930;2024-03-02T08:38:00;0.30;;;0.30;;
14098;SDS011;7126;48.458;7.930;2024-03-02T08:40:26;0.40;;;0.40;;
14098;SDS011;7126;48.458;7.930;2024-03-02T08:42:52;0.30;;;0.30;;
14098;SDS011;7126;48.458;7.930;2024-03-02T08:45:17;0.40;;;0.40;;
14098;SDS011;7126;48.458;7.930;2024-03-02T08:47:45;0.30;;;0.30;;
14098;SDS011;7126;48.458;7.930;2024-03-02T08:50:10;0.30;;;0.30;;
14098;SDS011;7126;48.458;7.930;2024-03-02T08:52:36;0.35;;;0.35;;
14098;SDS011;7126;48.458;7.930;2024-03-02T08:55:02;0.20;;;0.20;;
14098;SDS011;7126;48.458;7.930;2024-03-02T08:57:27;0.30;;;0.30;;
14098;SDS011;7126;48.458;7.930;2024-03-02T08:59:53;0.82;;;0.82;;
14098;SDS011;7126;48.458;7.930;2024-03-02T09:02:18;0.30;;;0.30;;
14098;SDS011;7126;48.458;7.930;2024-03-02T09:04:44;0.40;;;0.40;;
14098;SDS011;7126;48.458;7.930;2024-03-02T09:07:09;0.30;;;0.30;;
14098;SDS011;7126;48.458;7.930;2024-03-02T09:09:35;0.32;;;0.32;;
14098;SDS011;7126;48.458;7.930;2024-03-02T09:12:00;0.35;;;0.35;;
14098;SDS011;7126;48.458;7.930;2024-03-02T09:14:26;0.38;;;0.38;;
14098;SDS011;7126;48.458;7.930;2024-03-02T09:16:52;0.25;;;0.25;;
14098;SDS011;7126;48.458;7.930;2024-03-02T09:19:17;0.30;;;0.30;;
14098;SDS011;7126;48.458;7.930;2024-03-02T09:21:43;0.30;;;0.30;;
14098;SDS011;7126;48.458;7.930;2024-03-02T09:24:09;0.30;;;0.30;;
14098;SDS011;7126;48.458;7.930;2024-03-02T09:26:35;0.30;;;0.30;;
14098;SDS011;7126;48.458;7.930;2024-03-02T09:29:01;0.50;;;0.50;;
14098;SDS011;7126;48.458;7.930;2024-03-02T09:31:27;0.40;;;0.40;;
14098;SDS011;7126;48.458;7.930;2024-03-02T09:33:52;0.40;;;0.40;;
14098;SDS011;7126;48.458;7.930;2024-03-02T09:36:18;0.90;;;0.90;;
14098;SDS011;7126;48.458;7.930;2024-03-02T09:38:44;0.35;;;0.35;;
14098;SDS011;7126;48.458;7.930;2024-03-02T09:41:10;0.40;;;0.40;;
14098;SDS011;7126;48.458;7.930;2024-03-02T09:43:36;0.40;;;0.40;;
14098;SDS011;7126;48.458;7.930;2024-03-02T09:46:01;0.30;;;0.30;;
14098;SDS011;7126;48.458;7.930;2024-03-02T09:48:28;0.30;;;0.30;;
14098;SDS011;7126;48.458;7.930;2024-03-02T09:50:54;0.40;;;0.40;;
14098;SDS011;7126;48.458;7.930;2024-03-02T09:53:19;0.40;;;0.40;;
14098;SDS011;7126;48.458;7.930;2024-03-02T09:55:47;0.30;;;0.30;;
14098;SDS011;7126;48.458;7.930;2024-03-02T09:58:12;0.40;;;0.40;;
14098;SDS011;7126;48.458;7.930;2024-03-02T10:00:38;0.45;;;0.45;;
14098;SDS011;7126;48.458;7.930;2024-03-02T10:03:04;0.30;;;0.30;;
14098;SDS011;7126;48.458;7.930;2024-03-02T10:05:30;0.40;;;0.40;;
14098;SDS011;7126;48.458;7.930;2024-03-02T10:08:00;0.40;;;0.40;;
14098;SDS011;7126;48.458;7.930;2024-03-02T10:10:34;0.30;;;0.30;;
14098;SDS011;7126;48.458;7.930;2024-03-02T10:13:04;0.30;;;0.30;;
14098;SDS011;7126;48.458;7.930;2024-03-02T10:15:38;0.30;;;0.30;;
14098;SDS011;7126;48.458;7.930;2024-03-02T10:18:09;0.30;;;0.30;;
14098;SDS011;7126;48.458;7.930;2024-03-02T10:20:38;0.30;;;0.30;;
14098;SDS011;7126;48.458;7.930;2024-03-02T10:25:41;0.40;;;0.40;;
14098;SDS011;7126;48.458;7.930;2024-03-02T10:28:08;0.40;;;0.40;;
14098;SDS011;7126;48.458;7.930;2024-03-02T10:30:34;0.40;;;0.40;;
14098;SDS011;7126;48.458;7.930;2024-03-02T10:33:00;0.30;;;0.30;;
14098;SDS011;7126;48.458;7.930;2024-03-02T10:35:27;0.40;;;0.40;;
14098;SDS011;7126;48.458;7.930;2024-03-02T10:37:53;0.40;;;0.40;;
14098;SDS011;7126;48.458;7.930;2024-03-02T10:40:22;0.30;;;0.30;;
14098;SDS011;7126;48.458;7.930;2024-03-02T10:42:49;0.40;;;0.40;;
14098;SDS011;7126;48.458;7.930;2024-03-02T10:45:16;0.68;;;0.68;;
14098;SDS011;7126;48.458;7.930;2024-03-02T10:47:44;0.40;;;0.40;;
14098;SDS011;7126;48.458;7.930;2024-03-02T10:50:12;0.40;;;0.40;;
14098;SDS011;7126;48.458;7.930;2024-03-02T10:52:37;0.40;;;0.40;;
14098;SDS011;7126;48.458;7.930;2024-03-02T10:55:07;0.40;;;0.40;;
14098;SDS011;7126;48.458;7.930;2024-03-02T10:57:41;0.38;;;0.38;;
14098;SDS011;7126;48.458;7.930;2024-03-02T11:00:11;0.40;;;0.40;;
14098;SDS011;7126;48.458;7.930;2024-03-02T11:02:50;0.40;;;0.40;;
14098;SDS011;7126;48.458;7.930;2024-03-02T11:05:22;0.30;;;0.30;;
14098;SDS011;7126;48.458;7.930;2024-03-02T11:07:53;0.40;;;0.40;;
14098;SDS011;7126;48.458;7.930;2024-03-02T11:10:22;0.50;;;0.50;;
14098;SDS011;7126;48.458;7.930;2024-03-02T11:12:52;0.40;;;0.40;;
14098;SDS011;7126;48.458;7.930;2024-03-02T11:15:24;0.50;;;0.50;;
14098;SDS011;7126;48.458;7.930;2024-03-02T11:17:51;0.30;;;0.30;;
14098;SDS011;7126;48.458;7.930;2024-03-02T11:20:18;0.30;;;0.30;;
14098;SDS011;7126;48.458;7.930;2024-03-02T11:22:45;0.40;;;0.40;;
14098;SDS011;7126;48.458;7.930;2024-03-02T11:25:23;0.40;;;0.40;;
14098;SDS011;7126;48.458;7.930;2024-03-02T11:32:59;0.40;;;0.40;;
14098;SDS011;7126;48.458;7.930;2024-03-02T11:35:25;0.30;;;0.30;;
14098;SDS011;7126;48.458;7.930;2024-03-02T11:37:51;0.40;;;0.40;;
14098;SDS011;7126;48.458;7.930;2024-03-02T11:40:25;0.45;;;0.45;;
14098;SDS011;7126;48.458;7.930;2024-03-02T11:42:53;0.32;;;0.32;;
14098;SDS011;7126;48.458;7.930;2024-03-02T11:45:25;0.40;;;0.40;;
14098;SDS011;7126;48.458;7.930;2024-03-02T11:47:53;0.40;;;0.40;;
14098;SDS011;7126;48.458;7.930;2024-03-02T11:50:34;0.30;;;0.30;;
14098;SDS011;7126;48.458;7.930;2024-03-02T11:53:02;0.40;;;0.40;;
14098;SDS011;7126;48.458;7.930;2024-03-02T11:55:31;0.40;;;0.40;;
14098;SDS011;7126;48.458;7.930;2024-03-02T11:58:03;0.38;;;0.38;;
14098;SDS011;7126;48.458;7.930;2024-03-02T12:00:29;0.50;;;0.50;;
14098;SDS011;7126;48.458;7.930;2024-03-02T12:03:05;0.40;;;0.40;;
14098;SDS011;7126;48.458;7.930;2024-03-02T12:05:32;0.43;;;0.43;;
14098;SDS011;7126;48.458;7.930;2024-03-02T12:08:02;0.40;;;0.40;;
14098;SDS011;7126;48.458;7.930;2024-03-02T12:10:29;0.40;;;0.40;;
14098;SDS011;7126;48.458;7.930;2024-03-02T12:12:58;0.65;;;0.65;;
14098;SDS011;7126;48.458;7.930;2024-03-02T12:15:31;0.30;;;0.30;;
14098;SDS011;7126;48.458;7.930;2024-03-02T12:17:58;0.40;;;0.40;;
14098;SDS011;7126;48.458;7.930;2024-03-02T12:20:25;0.50;;;0.50;;
14098;SDS011;7126;48.458;7.930;2024-03-02T12:22:53;0.40;;;0.40;;
14098;SDS011;7126;48.458;7.930;2024-03-02T12:25:19;0.40;;;0.40;;
14098;SDS011;7126;48.458;7.930;2024-03-02T12:27:46;0.43;;;0.43;;
14098;SDS011;7126;48.458;7.930;2024-03-02T12:30:17;0.47;;;0.47;;
14098;SDS011;7126;48.458;7.930;2024-03-02T12:32:43;0.50;;;0.50;;
14098;SDS011;7126;48.458;7.930;2024-03-02T12:35:10;0.57;;;0.57;;
14098;SDS011;7126;48.458;7.930;2024-03-02T12:37:43;0.60;;;0.60;;
14098;SDS011;7126;48.458;7.930;2024-03-02T12:40:13;0.40;;;0.40;;
14098;SDS011;7126;48.458;7.930;2024-03-02T12:42:40;0.60;;;0.60;;
14098;SDS011;7126;48.458;7.930;2024-03-02T12:45:07;0.50;;;0.50;;
14098;SDS011;7126;48.458;7.930;2024-03-02T12:47:33;0.60;;;0.60;;
14098;SDS011;7126;48.458;7.930;2024-03-02T12:49:59;0.43;;;0.43;;
14098;SDS011;7126;48.458;7.930;2024-03-02T12:52:25;0.60;;;0.60;;
14098;SDS011;7126;48.458;7.930;2024-03-02T12:54:51;0.50;;;0.50;;
14098;SDS011;7126;48.458;7.930;2024-03-02T12:57:20;0.55;;;0.55;;
14098;SDS011;7126;48.458;7.930;2024-03-02T12:59:45;0.70;;;0.70;;
14098;SDS011;7126;48.458;7.930;2024-03-02T13:02:17;0.57;;;0.57;;
14098;SDS011;7126;48.458;7.930;2024-03-02T13:04:43;0.63;;;0.63;;
14098;SDS011;7126;48.458;7.930;2024-03-02T13:07:09;0.75;;;0.75;;
14098;SDS011;7126;48.458;7.930;2024-03-02T13:09:35;0.50;;;0.50;;
14098;SDS011;7126;48.458;7.930;2024-03-02T13:12:02;0.70;;;0.70;;
14098;SDS011;7126;48.458;7.930;2024-03-02T13:14:31;0.60;;;0.60;;
14098;SDS011;7126;48.458;7.930;2024-03-02T13:16:57;0.65;;;0.65;;
14098;SDS011;7126;48.458;7.930;2024-03-02T13:19:25;0.75;;;0.75;;
14098;SDS011;7126;48.458;7.930;2024-03-02T13:21:50;0.93;;;0.93;;
14098;SDS011;7126;48.458;7.930;2024-03-02T13:24:16;0.90;;;0.90;;
14098;SDS011;7126;48.458;7.930;2024-03-02T13:26:41;0.70;;;0.70;;
14098;SDS011;7126;48.458;7.930;2024-03-02T13:29:07;0.70;;;0.70;;
14098;SDS011;7126;48.458;7.930;2024-03-02T13:31:33;0.90;;;0.90;;
14098;SDS011;7126;48.458;7.930;2024-03-02T13:33:59;0.70;;;0.70;;
14098;SDS011;7126;48.458;7.930;2024-03-02T13:36:24;0.70;;;0.70;;
14098;SDS011;7126;48.458;7.930;2024-03-02T13:38:50;0.88;;;0.88;;
14098;SDS011;7126;48.458;7.930;2024-03-02T13:41:16;0.60;;;0.60;;
14098;SDS011;7126;48.458;7.930;2024-03-02T13:43:41;0.70;;;0.70;;
14098;SDS011;7126;48.458;7.930;2024-03-02T13:46:09;0.50;;;0.50;;
14098;SDS011;7126;48.458;7.930;2024-03-02T13:48:35;0.80;;;0.80;;
14098;SDS011;7126;48.458;7.930;2024-03-02T13:51:01;0.50;;;0.50;;
14098;SDS011;7126;48.458;7.930;2024-03-02T13:53:27;0.65;;;0.65;;
14098;SDS011;7126;48.458;7.930;2024-03-02T13:55:53;0.60;;;0.60;;
14098;SDS011;7126;48.458;7.930;2024-03-02T13:58:18;0.70;;;0.70;;
14098;SDS011;7126;48.458;7.930;2024-03-02T14:00:45;0.60;;;0.60;;
14098;SDS011;7126;48.458;7.930;2024-03-02T14:03:11;0.50;;;0.50;;
14098;SDS011;7126;48.458;7.930;2024-03-02T14:05:37;0.60;;;0.60;;
14098;SDS011;7126;48.458;7.930;2024-03-02T14:08:02;0.60;;;0.60;;
14098;SDS011;7126;48.458;7.930;2024-03-02T14:10:29;0.50;;;0.50;;
14098;SDS011;7126;48.458;7.930;2024-03-02T14:12:54;0.80;;;0.80;;
14098;SDS011;7126;48.458;7.930;2024-03-02T14:15:23;0.60;;;0.60;;
14098;SDS011;7126;48.458;7.930;2024-03-02T14:17:49;0.70;;;0.70;;
14098;SDS011;7126;48.458;7.930;2024-03-02T14:20:15;0.70;;;0.70;;
14098;SDS011;7126;48.458;7.930;2024-03-02T14:22:46;0.47;;;0.47;;
14098;SDS011;7126;48.458;7.930;2024-03-02T14:25:12;0.50;;;0.50;;
14098;SDS011;7126;48.458;7.930;2024-03-02T14:27:38;0.63;;;0.63;;
14098;SDS011;7126;48.458;7.930;2024-03-02T14:30:04;0.57;;;0.57;;
14098;SDS011;7126;48.458;7.930;2024-03-02T14:32:30;0.60;;;0.60;;
14098;SDS011;7126;48.458;7.930;2024-03-02T14:34:55;0.70;;;0.70;;
14098;SDS011;7126;48.458;7.930;2024-03-02T14:37:21;0.60;;;0.60;;
14098;SDS011;7126;48.458;7.930;2024-03-02T14:39:46;0.50;;;0.50;;
14098;SDS011;7126;48.458;7.930;2024-03-02T14:42:12;0.57;;;0.57;;
14098;SDS011;7126;48.458;7.930;2024-03-02T14:44:38;0.50;;;0.50;;
14098;SDS011;7126;48.458;7.930;2024-03-02T14:47:03;0.50;;;0.50;;
14098;SDS011;7126;48.458;7.930;2024-03-02T14:49:29;0.60;;;0.60;;
14098;SDS011;7126;48.458;7.930;2024-03-02T14:51:55;0.50;;;0.50;;
14098;SDS011;7126;48.458;7.930;2024-03-02T14:54:21;0.52;;;0.52;;
14098;SDS011;7126;48.458;7.930;2024-03-02T14:56:46;0.60;;;0.60;;
14098;SDS011;7126;48.458;7.930;2024-03-02T14:59:13;0.60;;;0.60;;
14098;SDS011;7126;48.458;7.930;2024-03-02T15:01:38;0.52;;;0.52;;
14098;SDS011;7126;48.458;7.930;2024-03-02T15:04:04;0.60;;;0.60;;
14098;SDS011;7126;48.458;7.930;2024-03-02T15:06:29;0.50;;;0.50;;